createdAt,value
2023-02-11T00:02:30.359Z,-0.43
2023-02-11T00:05:17.166Z,-0.46
2023-02-11T00:08:03.999Z,-0.48
2023-02-11T00:10:58.246Z,-0.52
2023-02-11T00:13:45.689Z,-0.53
2023-02-11T00:16:32.926Z,-0.55
2023-02-11T00:19:20.366Z,-0.57
2023-02-11T00:22:07.772Z,-0.59
2023-02-11T00:24:54.843Z,-0.62
2023-02-11T00:27:41.661Z,-0.63
2023-02-11T00:30:28.514Z,-0.67
2023-02-11T00:33:15.290Z,-0.67
2023-02-11T00:36:09.518Z,-0.68
2023-02-11T00:38:58.017Z,-0.73
2023-02-11T00:41:44.801Z,-0.75
2023-02-11T00:44:31.605Z,-0.75
2023-02-11T00:47:18.383Z,-0.76
2023-02-11T00:50:06.198Z,-0.77
2023-02-11T00:52:52.936Z,-0.80
2023-02-11T00:55:39.727Z,-0.80
2023-02-11T00:58:27.040Z,-0.82
2023-02-11T01:01:13.860Z,-0.84
2023-02-11T01:04:00.757Z,-0.84
2023-02-11T01:06:47.774Z,-0.87
2023-02-11T01:09:34.567Z,-0.89
2023-02-11T01:12:21.457Z,-0.88
2023-02-11T01:15:09.324Z,-0.89
2023-02-11T01:17:56.121Z,-0.90
2023-02-11T01:20:43.003Z,-0.93
2023-02-11T01:23:30.948Z,-0.94
2023-02-11T01:26:17.754Z,-0.95
2023-02-11T01:29:04.656Z,-0.98
2023-02-11T01:31:52.376Z,-0.98
2023-02-11T01:34:39.221Z,-0.99
2023-02-11T01:37:26.198Z,-1.02
2023-02-11T01:40:16.187Z,-1.04
2023-02-11T01:43:02.968Z,-1.07
2023-02-11T01:45:58.774Z,-1.07
2023-02-11T01:48:48.916Z,-1.07
2023-02-11T01:51:44.660Z,-1.10
2023-02-11T01:54:55.761Z,-1.11
2023-02-11T01:57:46.096Z,-1.12
2023-02-11T02:00:37.215Z,-1.13
2023-02-11T02:03:24.627Z,-1.13
2023-02-11T02:06:27.188Z,-1.16
2023-02-11T02:09:21.608Z,-1.16
2023-02-11T02:12:08.395Z,-1.19
2023-02-11T02:15:31.617Z,-1.20
2023-02-11T02:18:55.791Z,-1.21
2023-02-11T02:21:51.097Z,-1.23
2023-02-11T02:24:44.746Z,-1.24
2023-02-11T02:27:50.065Z,-1.25
2023-02-11T02:30:53.627Z,-1.27
2023-02-11T02:34:09.634Z,-1.29
2023-02-11T02:37:03.499Z,-1.31
2023-02-11T02:39:50.523Z,-1.32
2023-02-11T02:42:38.823Z,-1.32
2023-02-11T02:45:25.599Z,-1.35
2023-02-11T02:48:29.078Z,-1.35
2023-02-11T02:51:44.141Z,-1.36
2023-02-11T02:54:52.077Z,-1.38
2023-02-11T02:58:14.927Z,-1.41
2023-02-11T03:01:28.773Z,-1.40
2023-02-11T03:04:39.840Z,-1.41
2023-02-11T03:07:48.767Z,-1.43
2023-02-11T03:10:42.404Z,-1.44
2023-02-11T03:13:34.578Z,-1.48
2023-02-11T03:16:26.101Z,-1.45
2023-02-11T03:19:16.857Z,-1.47
2023-02-11T03:22:06.511Z,-1.46
2023-02-11T03:24:53.749Z,-1.48
2023-02-11T03:28:11.261Z,-1.48
2023-02-11T03:31:10.208Z,-1.49
2023-02-11T03:34:16.773Z,-1.50
2023-02-11T03:37:08.403Z,-1.52
2023-02-11T03:40:00.148Z,-1.51
2023-02-11T03:42:53.860Z,-1.51
2023-02-11T03:45:40.947Z,-1.53
2023-02-11T03:48:37.975Z,-1.55
2023-02-11T03:51:25.554Z,-1.54
2023-02-11T03:54:15.317Z,-1.55
2023-02-11T03:57:02.732Z,-1.56
2023-02-11T03:59:54.050Z,-1.56
2023-02-11T04:02:41.390Z,-1.57
2023-02-11T04:05:28.260Z,-1.59
2023-02-11T04:08:15.185Z,-1.57
2023-02-11T04:11:02.066Z,-1.57
2023-02-11T04:13:48.836Z,-1.57
2023-02-11T04:16:35.642Z,-1.58
2023-02-11T04:19:22.432Z,-1.58
2023-02-11T04:22:09.258Z,-1.57
2023-02-11T04:24:56.116Z,-1.60
2023-02-11T04:27:42.896Z,-1.58
2023-02-11T04:30:29.683Z,-1.58
2023-02-11T04:33:16.761Z,-1.58
2023-02-11T04:36:03.790Z,-1.58
2023-02-11T04:38:50.565Z,-1.59
2023-02-11T04:41:37.343Z,-1.59
2023-02-11T04:44:24.119Z,-1.59
2023-02-11T04:47:12.723Z,-1.59
2023-02-11T04:49:59.572Z,-1.60
2023-02-11T04:52:46.458Z,-1.57
2023-02-11T04:55:33.225Z,-1.58
2023-02-11T04:58:20.363Z,-1.58
2023-02-11T05:01:08.211Z,-1.60
2023-02-11T05:03:55.028Z,-1.57
2023-02-11T05:06:41.824Z,-1.57
2023-02-11T05:09:28.875Z,-1.57
2023-02-11T05:12:18.040Z,-1.58
2023-02-11T05:15:07.706Z,-1.59
2023-02-11T05:17:54.619Z,-1.57
2023-02-11T05:20:42.515Z,-1.58
2023-02-11T05:23:29.268Z,-1.59
2023-02-11T05:26:16.152Z,-1.59
2023-02-11T05:29:03.007Z,-1.59
2023-02-11T05:31:49.750Z,-1.59
2023-02-11T05:34:36.891Z,-1.59
2023-02-11T05:37:23.880Z,-1.59
2023-02-11T05:40:11.556Z,-1.58
2023-02-11T05:42:58.493Z,-1.59
2023-02-11T05:45:58.896Z,-1.60
2023-02-11T05:48:45.691Z,-1.58
2023-02-11T05:51:36.893Z,-1.58
2023-02-11T05:54:23.706Z,-1.58
2023-02-11T05:57:10.482Z,-1.58
2023-02-11T05:59:57.268Z,-1.56
2023-02-11T06:02:44.191Z,-1.56
2023-02-11T06:05:31.411Z,-1.59
2023-02-11T06:08:18.485Z,-1.57
2023-02-11T06:11:05.308Z,-1.57
2023-02-11T06:13:52.073Z,-1.56
2023-02-11T06:16:38.932Z,-1.58
2023-02-11T06:19:30.999Z,-1.57
2023-02-11T06:22:17.818Z,-1.56
2023-02-11T06:25:05.316Z,-1.55
2023-02-11T06:27:52.094Z,-1.57
2023-02-11T06:30:38.889Z,-1.56
2023-02-11T06:33:25.651Z,-1.55
2023-02-11T06:36:18.480Z,-1.55
2023-02-11T06:39:05.452Z,-1.55
2023-02-11T06:41:52.248Z,-1.54
2023-02-11T06:44:39.097Z,-1.57
2023-02-11T06:47:25.905Z,-1.54
2023-02-11T06:50:14.255Z,-1.54
2023-02-11T06:53:01.542Z,-1.55
2023-02-11T06:55:48.598Z,-1.54
2023-02-11T06:58:35.523Z,-1.55
2023-02-11T07:01:23.383Z,-1.54
2023-02-11T07:04:10.688Z,-1.53
2023-02-11T07:06:57.537Z,-1.51
2023-02-11T07:09:44.426Z,-1.54
2023-02-11T07:12:31.557Z,-1.52
2023-02-11T07:15:18.445Z,-1.52
2023-02-11T07:18:05.251Z,-1.52
2023-02-11T07:20:52.091Z,-1.51
2023-02-11T07:23:40.716Z,-1.49
2023-02-11T07:26:28.949Z,-1.51
2023-02-11T07:29:15.750Z,-1.49
2023-02-11T07:32:02.600Z,-1.50
2023-02-11T07:34:49.510Z,-1.49
2023-02-11T07:37:36.484Z,-1.49
2023-02-11T07:40:23.249Z,-1.49
2023-02-11T07:43:10.014Z,-1.48
2023-02-11T07:45:56.777Z,-1.47
2023-02-11T07:48:43.676Z,-1.46
2023-02-11T07:51:31.263Z,-1.47
2023-02-11T07:54:18.020Z,-1.46
2023-02-11T07:57:08.371Z,-1.46
2023-02-11T08:00:04.216Z,-1.46
2023-02-11T08:02:50.938Z,-1.44
2023-02-11T08:05:38.618Z,-1.44
2023-02-11T08:08:28.571Z,-1.43
2023-02-11T08:11:18.605Z,-1.43
2023-02-11T08:14:05.398Z,-1.43
2023-02-11T08:16:52.200Z,-1.42
2023-02-11T08:19:39.213Z,-1.40
2023-02-11T08:22:26.032Z,-1.43
2023-02-11T08:25:15.127Z,-1.40
2023-02-11T08:28:01.971Z,-1.39
2023-02-11T08:30:49.022Z,-1.38
2023-02-11T08:33:40.596Z,-1.38
2023-02-11T08:36:32.701Z,-1.37
2023-02-11T08:39:23.129Z,-1.36
2023-02-11T08:42:10.078Z,-1.34
2023-02-11T08:44:59.455Z,-1.33
2023-02-11T08:47:46.086Z,-1.29
2023-02-11T08:50:32.857Z,-1.27
2023-02-11T08:53:19.675Z,-1.27
2023-02-11T08:56:06.932Z,-1.28
2023-02-11T08:58:57.027Z,-1.26
2023-02-11T09:01:44.362Z,-1.24
2023-02-11T09:04:31.359Z,-1.23
2023-02-11T09:07:18.178Z,-1.23
2023-02-11T09:10:06.306Z,-1.21
2023-02-11T09:12:53.119Z,-1.18
2023-02-11T09:15:39.946Z,-1.19
2023-02-11T09:18:26.986Z,-1.16
2023-02-11T09:21:20.338Z,-1.17
2023-02-11T09:24:07.260Z,-1.14
2023-02-11T09:26:58.532Z,-1.12
2023-02-11T09:29:48.592Z,-1.11
2023-02-11T09:32:35.838Z,-1.10
2023-02-11T09:35:22.634Z,-1.08
2023-02-11T09:38:09.673Z,-1.12
2023-02-11T09:40:56.434Z,-1.07
2023-02-11T09:43:46.560Z,-1.06
2023-02-11T09:46:44.517Z,-1.05
2023-02-11T09:49:43.689Z,-1.04
2023-02-11T09:52:59.323Z,-1.02
2023-02-11T09:55:48.418Z,-1.03
2023-02-11T09:58:36.860Z,-0.99
2023-02-11T10:01:57.006Z,-0.98
2023-02-11T10:05:09.530Z,-0.96
2023-02-11T10:08:16.571Z,-0.97
2023-02-11T10:11:22.637Z,-0.94
2023-02-11T10:14:47.124Z,-0.92
2023-02-11T10:17:55.435Z,-0.92
2023-02-11T10:20:50.087Z,-0.89
2023-02-11T10:23:40.873Z,-0.89
2023-02-11T10:26:30.915Z,-0.85
2023-02-11T10:29:40.745Z,-0.83
2023-02-11T10:32:30.247Z,-0.81
2023-02-11T10:35:23.966Z,-0.82
2023-02-11T10:38:11.413Z,-0.80
2023-02-11T10:40:58.173Z,-0.77
2023-02-11T10:43:48.206Z,-0.76
2023-02-11T10:46:40.179Z,-0.71
2023-02-11T10:49:38.603Z,-0.67
2023-02-11T10:52:28.420Z,-0.65
2023-02-11T10:55:18.074Z,-0.61
2023-02-11T10:58:04.901Z,-0.59
2023-02-11T11:00:53.887Z,-0.55
2023-02-11T11:03:47.815Z,-0.50
2023-02-11T11:06:35.237Z,-0.46
2023-02-11T11:09:28.971Z,-0.45
2023-02-11T11:12:26.140Z,-0.42
2023-02-11T11:15:18.160Z,-0.40
2023-02-11T11:18:31.478Z,-0.40
2023-02-11T11:21:27.989Z,-0.39
2023-02-11T11:24:20.867Z,-0.36
2023-02-11T11:27:15.942Z,-0.36
2023-02-11T11:30:03.353Z,-0.33
2023-02-11T11:32:50.154Z,-0.33
2023-02-11T11:35:37.003Z,-0.32
2023-02-11T11:38:24.613Z,-0.29
2023-02-11T11:41:21.522Z,-0.27
2023-02-11T11:44:28.116Z,-0.26
2023-02-11T11:47:20.688Z,-0.25
2023-02-11T11:50:22.530Z,-0.21
2023-02-11T11:53:18.723Z,-0.21
2023-02-11T11:56:09.540Z,-0.19
2023-02-11T11:59:03.769Z,-0.17
2023-02-11T12:02:21.521Z,-0.15
2023-02-11T12:05:59.209Z,-0.14
2023-02-11T12:09:08.799Z,-0.05
2023-02-11T12:11:58.931Z,0.02
2023-02-11T12:14:57.813Z,0.09
2023-02-11T12:18:22.006Z,0.15
2023-02-11T12:21:20.623Z,0.21
2023-02-11T12:24:45.814Z,0.28
2023-02-11T12:27:45.177Z,0.35
2023-02-11T12:30:51.239Z,0.38
2023-02-11T12:33:44.762Z,0.46
2023-02-11T12:37:09.250Z,0.51
2023-02-11T12:40:14.066Z,0.55
2023-02-11T12:43:16.565Z,0.54
2023-02-11T12:46:39.476Z,0.54
2023-02-11T12:49:58.713Z,0.53
2023-02-11T12:53:25.708Z,0.53
2023-02-11T12:56:50.937Z,0.53
2023-02-11T13:00:42.391Z,0.52
2023-02-11T13:04:06.354Z,0.51
2023-02-11T13:07:57.299Z,0.51
2023-02-11T13:14:15.588Z,0.54
2023-02-11T13:17:09.030Z,0.48
2023-02-11T13:20:06.549Z,0.57
2023-02-11T13:23:04.666Z,0.50
2023-02-11T13:26:06.100Z,0.53
2023-02-11T13:29:21.797Z,0.63
2023-02-11T13:32:20.426Z,0.64
2023-02-11T13:35:30.922Z,0.58
2023-02-11T13:38:24.115Z,0.63
2023-02-11T13:41:24.776Z,0.71
2023-02-11T13:44:11.645Z,0.72
2023-02-11T13:47:10.296Z,0.65
2023-02-11T13:50:04.043Z,0.68
2023-02-11T13:53:03.356Z,0.69
2023-02-11T13:56:00.518Z,0.80
2023-02-11T13:58:51.413Z,0.72
2023-02-11T14:02:07.432Z,0.84
2023-02-11T14:05:22.370Z,0.86
2023-02-11T14:08:47.366Z,0.79
2023-02-11T14:22:40.661Z,0.91
2023-02-11T14:25:32.305Z,0.93
2023-02-11T14:28:24.619Z,0.95
2023-02-11T14:31:21.423Z,1.08
2023-02-11T14:34:24.799Z,1.14
2023-02-11T14:37:22.572Z,1.22
2023-02-11T14:40:29.809Z,1.33
2023-02-11T14:43:20.183Z,1.41
2023-02-11T14:46:07.081Z,1.46
2023-02-11T14:48:58.390Z,1.52
2023-02-11T14:51:45.162Z,1.57
2023-02-11T14:54:33.304Z,1.60
2023-02-11T14:57:22.387Z,1.64
2023-02-11T15:00:17.658Z,1.69
2023-02-11T15:03:07.264Z,1.74
2023-02-11T15:05:56.921Z,1.79
2023-02-11T15:08:47.298Z,1.83
2023-02-11T15:11:39.713Z,1.85
2023-02-11T15:14:32.369Z,1.87
2023-02-11T15:17:24.686Z,1.92
2023-02-11T15:20:24.666Z,1.96
2023-02-11T15:23:20.549Z,1.98
2023-02-11T15:26:15.217Z,2.01
2023-02-11T15:29:01.983Z,2.02
2023-02-11T15:32:03.493Z,2.06
2023-02-11T15:34:52.610Z,2.07
2023-02-11T15:37:39.895Z,2.11
2023-02-11T15:40:32.972Z,2.16
2023-02-11T15:43:19.761Z,2.17
2023-02-11T15:46:06.797Z,2.20
2023-02-11T15:48:54.826Z,2.21
2023-02-11T15:51:45.462Z,2.23
2023-02-11T15:54:32.497Z,2.26
2023-02-11T15:57:20.222Z,2.30
2023-02-11T16:00:08.119Z,2.30
2023-02-11T16:02:54.933Z,2.34
2023-02-11T16:05:41.750Z,2.34
2023-02-11T16:08:29.901Z,2.37
2023-02-11T16:11:31.097Z,2.40
2023-02-11T16:14:23.948Z,2.41
2023-02-11T16:17:13.230Z,2.42
2023-02-11T16:19:59.892Z,2.45
2023-02-11T16:22:47.143Z,2.47
2023-02-11T16:25:37.475Z,2.49
2023-02-11T16:28:25.729Z,2.47
2023-02-11T16:31:13.269Z,2.49
2023-02-11T16:34:00.112Z,2.50
2023-02-11T16:36:47.724Z,2.50
2023-02-11T16:39:34.618Z,2.48
2023-02-11T16:42:23.410Z,2.51
2023-02-11T16:45:18.767Z,2.53
2023-02-11T16:48:17.103Z,2.48
2023-02-11T16:51:09.356Z,2.48
2023-02-11T16:53:56.184Z,2.49
2023-02-11T16:56:44.063Z,2.57
2023-02-11T16:59:30.880Z,2.59
2023-02-11T17:02:24.297Z,2.58
2023-02-11T17:05:22.934Z,2.57
2023-02-11T17:08:13.080Z,2.57
2023-02-11T17:11:05.312Z,2.57
2023-02-11T17:13:52.108Z,2.58
2023-02-11T17:16:39.168Z,2.61
2023-02-11T17:19:31.162Z,2.62
2023-02-11T17:22:18.671Z,2.63
2023-02-11T17:25:06.590Z,2.67
2023-02-11T17:27:53.735Z,2.69
2023-02-11T17:30:44.722Z,2.68
2023-02-11T17:33:31.794Z,2.73
2023-02-11T17:36:19.496Z,2.72
2023-02-11T17:39:08.259Z,2.74
2023-02-11T17:41:55.202Z,2.77
2023-02-11T17:44:46.431Z,2.76
2023-02-11T17:47:36.390Z,2.79
2023-02-11T17:50:23.210Z,2.81
2023-02-11T17:53:12.416Z,2.81
2023-02-11T17:56:11.247Z,2.83
2023-02-11T17:59:02.492Z,2.85
2023-02-11T18:01:49.282Z,2.86
2023-02-11T18:04:36.520Z,2.87
2023-02-11T18:07:23.428Z,2.89
2023-02-11T18:10:10.719Z,2.90
2023-02-11T18:12:57.464Z,2.89
2023-02-11T18:15:44.349Z,2.91
2023-02-11T18:18:31.262Z,2.92
2023-02-11T18:21:19.888Z,2.96
2023-02-11T18:24:07.308Z,2.95
2023-02-11T18:26:54.147Z,2.97
2023-02-11T18:29:40.880Z,2.98
2023-02-11T18:32:30.791Z,2.98
2023-02-11T18:35:17.592Z,2.98
2023-02-11T18:38:04.387Z,3.00
2023-02-11T18:40:52.335Z,3.01
2023-02-11T18:43:40.005Z,3.00
2023-02-11T18:46:26.829Z,3.01
2023-02-11T18:49:14.543Z,3.03
2023-02-11T18:52:01.298Z,3.04
2023-02-11T18:54:51.332Z,3.04
2023-02-11T18:57:38.085Z,3.06
2023-02-11T19:00:26.984Z,3.06
2023-02-11T19:03:14.088Z,3.06
2023-02-11T19:06:00.853Z,3.08
2023-02-11T19:08:47.939Z,3.07
2023-02-11T19:11:54.309Z,3.09
2023-02-11T19:14:41.409Z,3.09
2023-02-11T19:17:28.154Z,3.10
2023-02-11T19:20:15.012Z,3.09
2023-02-11T19:23:01.823Z,3.11
2023-02-11T19:25:48.817Z,3.11
2023-02-11T19:28:37.064Z,3.12
2023-02-11T19:31:24.109Z,3.11
2023-02-11T19:34:14.064Z,3.12
2023-02-11T19:37:01.602Z,3.11
2023-02-11T19:39:51.552Z,3.13
2023-02-11T19:42:38.733Z,3.14
2023-02-11T19:45:26.862Z,3.15
2023-02-11T19:48:13.586Z,3.14
2023-02-11T19:51:07.936Z,3.14
2023-02-11T19:53:54.718Z,3.15
2023-02-11T19:56:41.614Z,3.16
2023-02-11T19:59:28.406Z,3.15
2023-02-11T20:02:18.901Z,3.13
2023-02-11T20:05:06.338Z,3.14
2023-02-11T20:07:53.098Z,3.17
2023-02-11T20:10:40.376Z,3.19
2023-02-11T20:13:27.939Z,3.13
2023-02-11T20:16:17.226Z,3.18
2023-02-11T20:19:03.981Z,3.19
2023-02-11T20:21:55.629Z,3.16
2023-02-11T20:24:50.503Z,3.19
2023-02-11T20:27:37.720Z,3.18
2023-02-11T20:30:24.842Z,3.17
2023-02-11T20:33:11.642Z,3.17
2023-02-11T20:36:04.481Z,3.18
2023-02-11T20:38:51.613Z,3.18
2023-02-11T20:41:39.970Z,3.17
2023-02-11T20:44:27.358Z,3.19
2023-02-11T20:47:14.274Z,3.13
2023-02-11T20:50:01.168Z,3.17
2023-02-11T20:52:48.536Z,3.18
2023-02-11T20:55:37.897Z,3.16
2023-02-11T20:58:30.936Z,3.20
2023-02-11T21:01:20.722Z,3.19
2023-02-11T21:04:12.994Z,3.20
2023-02-11T21:07:01.616Z,3.14
2023-02-11T21:09:49.324Z,3.15
2023-02-11T21:12:38.878Z,3.14
2023-02-11T21:15:25.714Z,3.19
2023-02-11T21:18:13.271Z,3.18
2023-02-11T21:21:00.175Z,3.20
2023-02-11T21:23:47.621Z,3.18
2023-02-11T21:26:35.533Z,3.19
2023-02-11T21:29:22.283Z,3.20
2023-02-11T21:32:09.081Z,3.21
2023-02-11T21:34:55.976Z,3.17
2023-02-11T21:37:42.742Z,3.21
2023-02-11T21:40:38.688Z,3.19
2023-02-11T21:43:25.541Z,3.20
2023-02-11T21:46:14.477Z,3.18
2023-02-11T21:49:01.506Z,3.17
2023-02-11T21:51:48.390Z,3.20
2023-02-11T21:54:35.178Z,3.21
2023-02-11T21:57:21.922Z,3.22
2023-02-11T22:00:09.832Z,3.21
2023-02-11T22:02:56.718Z,3.21
2023-02-11T22:05:46.571Z,3.21
2023-02-11T22:08:34.805Z,3.22
2023-02-11T22:11:21.641Z,3.21
2023-02-11T22:14:08.546Z,3.22
2023-02-11T22:16:55.375Z,3.21
2023-02-11T22:19:42.205Z,3.23
2023-02-11T22:22:29.347Z,3.23
2023-02-11T22:25:19.355Z,3.18
2023-02-11T22:28:06.265Z,3.19
2023-02-11T22:30:55.289Z,3.23
2023-02-11T22:33:42.722Z,3.18
2023-02-11T22:36:31.794Z,3.18
2023-02-11T22:39:21.093Z,3.21
2023-02-11T22:42:07.859Z,3.24
2023-02-11T22:44:54.750Z,3.23
2023-02-11T22:47:41.609Z,3.19
2023-02-11T22:50:28.408Z,3.20
2023-02-11T22:53:15.171Z,3.18
2023-02-11T22:56:05.632Z,3.22
2023-02-11T22:58:53.652Z,3.21
2023-02-11T23:01:40.674Z,3.19
2023-02-11T23:04:27.518Z,3.16
2023-02-11T23:07:22.057Z,3.22
2023-02-11T23:10:09.901Z,3.23
2023-02-11T23:12:56.696Z,3.20
2023-02-11T23:15:45.174Z,3.19
2023-02-11T23:18:32.175Z,3.20
2023-02-11T23:21:21.890Z,3.21
2023-02-11T23:24:12.260Z,3.23
2023-02-11T23:26:59.109Z,3.23
2023-02-11T23:29:45.879Z,3.19
2023-02-11T23:32:32.813Z,3.21
2023-02-11T23:35:23.159Z,3.21
2023-02-11T23:38:13.496Z,3.17
2023-02-11T23:41:07.444Z,3.21
2023-02-11T23:43:56.304Z,3.19
2023-02-11T23:47:06.299Z,3.22
2023-02-11T23:49:54.228Z,3.20
2023-02-11T23:52:44.119Z,3.19
2023-02-11T23:55:31.007Z,3.16
2023-02-11T23:58:17.957Z,3.18
